createdAt,value
2023-05-23T00:01:31.947Z,12.55
2023-05-23T00:03:59.009Z,11.57
2023-05-23T00:06:26.869Z,11.93
2023-05-23T00:08:53.841Z,11.75
2023-05-23T00:11:23.949Z,10.20
2023-05-23T00:13:51.400Z,10.98
2023-05-23T00:16:18.240Z,11.35
2023-05-23T00:18:45.863Z,12.15
2023-05-23T00:21:16.091Z,11.85
2023-05-23T00:23:43.406Z,10.13
2023-05-23T00:26:10.659Z,12.35
2023-05-23T00:28:38.401Z,11.20
2023-05-23T00:31:05.204Z,11.80
2023-05-23T00:33:33.355Z,12.57
2023-05-23T00:36:03.186Z,11.45
2023-05-23T00:38:30.039Z,11.93
2023-05-23T00:40:56.828Z,11.88
2023-05-23T00:43:23.865Z,12.38
2023-05-23T00:45:50.612Z,13.13
2023-05-23T00:48:18.191Z,12.85
2023-05-23T00:50:45.907Z,13.02
2023-05-23T00:53:13.256Z,13.25
2023-05-23T00:55:40.275Z,12.38
2023-05-23T00:58:07.260Z,13.43
2023-05-23T01:00:34.813Z,13.05
2023-05-23T01:03:01.722Z,13.00
2023-05-23T01:05:28.620Z,14.00
2023-05-23T01:07:55.785Z,12.25
2023-05-23T01:10:31.155Z,12.63
2023-05-23T01:13:06.787Z,12.57
2023-05-23T01:15:42.493Z,12.30
2023-05-23T01:18:43.843Z,12.18
2023-05-23T01:21:16.187Z,12.68
2023-05-23T01:24:06.505Z,12.38
2023-05-23T01:27:10.167Z,13.23
2023-05-23T01:29:47.063Z,13.35
2023-05-23T01:32:15.910Z,14.27
2023-05-23T01:34:43.848Z,14.35
2023-05-23T01:37:11.608Z,13.77
2023-05-23T01:39:38.780Z,13.95
2023-05-23T01:42:06.029Z,15.18
2023-05-23T01:44:34.873Z,15.57
2023-05-23T01:47:04.001Z,15.98
2023-05-23T01:49:31.813Z,17.92
2023-05-23T01:52:01.306Z,14.93
2023-05-23T01:54:29.666Z,13.68
2023-05-23T01:57:00.220Z,15.25
2023-05-23T01:59:27.284Z,14.10
2023-05-23T02:01:57.457Z,15.02
2023-05-23T02:04:24.218Z,14.73
2023-05-23T02:06:51.000Z,14.57
2023-05-23T02:09:17.847Z,13.95
2023-05-23T02:11:44.646Z,13.88
2023-05-23T02:14:12.953Z,13.90
2023-05-23T02:16:40.045Z,14.75
2023-05-23T02:19:06.952Z,15.73
2023-05-23T02:21:35.510Z,14.00
2023-05-23T02:24:02.585Z,14.50
2023-05-23T02:26:29.316Z,15.18
2023-05-23T02:28:56.288Z,14.73
2023-05-23T02:31:23.516Z,14.13
2023-05-23T02:33:50.457Z,13.93
2023-05-23T02:36:17.219Z,13.55
2023-05-23T02:38:44.011Z,15.20
2023-05-23T02:41:10.830Z,12.90
2023-05-23T02:43:38.418Z,14.60
2023-05-23T02:46:05.559Z,14.27
2023-05-23T02:48:32.438Z,15.93
2023-05-23T02:50:59.424Z,16.08
2023-05-23T02:53:26.356Z,16.52
2023-05-23T02:55:53.096Z,18.10
2023-05-23T02:58:20.756Z,16.60
2023-05-23T03:00:47.602Z,15.13
2023-05-23T03:03:14.461Z,18.10
2023-05-23T03:05:42.240Z,16.13
2023-05-23T03:08:09.327Z,19.27
2023-05-23T03:10:36.419Z,21.08
2023-05-23T03:13:03.750Z,17.85
2023-05-23T03:15:30.773Z,20.98
2023-05-23T03:17:57.670Z,20.00
2023-05-23T03:20:24.609Z,22.83
2023-05-23T03:22:51.579Z,19.13
2023-05-23T03:25:18.512Z,23.15
2023-05-23T03:27:45.795Z,23.13
2023-05-23T03:30:13.488Z,29.60
2023-05-23T03:32:40.525Z,24.17
2023-05-23T03:35:08.081Z,23.10
2023-05-23T03:37:35.186Z,22.48
2023-05-23T03:40:02.082Z,25.55
2023-05-23T03:42:29.247Z,26.60
2023-05-23T03:44:56.949Z,25.30
2023-05-23T03:47:24.578Z,26.50
2023-05-23T03:49:51.646Z,26.77
2023-05-23T03:52:18.851Z,27.77
2023-05-23T03:54:46.173Z,27.30
2023-05-23T03:57:13.120Z,24.73
2023-05-23T03:59:40.168Z,26.52
2023-05-23T04:02:07.143Z,27.40
2023-05-23T04:04:34.510Z,25.73
2023-05-23T04:07:01.927Z,30.67
2023-05-23T04:09:28.857Z,27.20
2023-05-23T04:11:56.148Z,29.08
2023-05-23T04:14:24.416Z,29.25
2023-05-23T04:16:51.334Z,28.63
2023-05-23T04:19:18.307Z,31.02
2023-05-23T04:21:45.327Z,31.48
2023-05-23T04:24:12.150Z,28.38
2023-05-23T04:26:39.568Z,30.80
2023-05-23T04:29:06.610Z,34.33
2023-05-23T04:31:34.387Z,32.40
2023-05-23T04:34:02.501Z,34.58
2023-05-23T04:36:30.283Z,31.48
2023-05-23T04:38:57.167Z,30.45
2023-05-23T04:41:24.113Z,34.95
2023-05-23T04:43:54.271Z,35.05
2023-05-23T04:46:27.188Z,32.35
2023-05-23T04:48:55.233Z,35.85
2023-05-23T04:51:22.399Z,34.13
2023-05-23T04:53:50.381Z,37.85
2023-05-23T04:56:18.602Z,34.78
2023-05-23T04:58:48.228Z,34.20
2023-05-23T05:01:15.749Z,37.33
2023-05-23T05:03:42.714Z,34.55
2023-05-23T05:06:09.570Z,37.08
2023-05-23T05:08:36.806Z,32.25
2023-05-23T05:11:03.531Z,32.00
2023-05-23T05:13:30.349Z,35.78
2023-05-23T05:15:57.120Z,34.50
2023-05-23T05:18:23.808Z,34.55
2023-05-23T05:20:50.844Z,34.42
2023-05-23T05:23:17.940Z,35.45
2023-05-23T05:25:44.958Z,39.33
2023-05-23T05:28:11.682Z,34.97
2023-05-23T05:30:39.118Z,33.55
2023-05-23T05:33:07.688Z,33.80
2023-05-23T05:35:35.307Z,32.53
2023-05-23T05:38:05.868Z,36.35
2023-05-23T05:40:32.973Z,33.90
2023-05-23T05:42:59.745Z,32.78
2023-05-23T05:45:26.705Z,34.30
2023-05-23T05:47:53.497Z,34.78
2023-05-23T05:50:20.424Z,31.60
2023-05-23T05:52:47.347Z,36.25
2023-05-23T05:55:14.212Z,40.85
2023-05-23T05:57:41.478Z,36.38
2023-05-23T06:00:13.611Z,33.35
2023-05-23T06:02:44.049Z,32.80
2023-05-23T06:05:16.286Z,34.22
2023-05-23T06:07:43.990Z,34.22
2023-05-23T06:10:13.985Z,35.53
2023-05-23T06:12:41.052Z,33.85
2023-05-23T06:15:09.687Z,30.70
2023-05-23T06:17:36.596Z,31.63
2023-05-23T06:20:05.008Z,32.80
2023-05-23T06:22:31.925Z,35.10
2023-05-23T06:24:58.994Z,33.47
2023-05-23T06:27:25.708Z,34.28
2023-05-23T06:29:52.462Z,40.88
2023-05-23T06:32:19.568Z,37.55
2023-05-23T06:34:46.300Z,35.53
2023-05-23T06:37:13.040Z,34.53
2023-05-23T06:39:39.807Z,37.72
2023-05-23T06:42:06.920Z,34.47
2023-05-23T06:44:33.669Z,35.25
2023-05-23T06:47:00.738Z,35.53
2023-05-23T06:49:27.489Z,33.47
2023-05-23T06:51:54.524Z,35.65
2023-05-23T06:54:21.428Z,35.00
2023-05-23T06:56:48.212Z,36.00
2023-05-23T06:59:14.998Z,35.40
2023-05-23T07:01:41.802Z,38.13
2023-05-23T07:04:08.663Z,36.97
2023-05-23T07:06:36.531Z,37.40
2023-05-23T07:09:04.176Z,34.47
2023-05-23T07:11:31.145Z,33.38
2023-05-23T07:13:58.951Z,33.15
2023-05-23T07:16:25.838Z,35.38
2023-05-23T07:18:52.742Z,35.83
2023-05-23T07:21:19.539Z,37.20
2023-05-23T07:23:46.263Z,32.20
2023-05-23T07:26:13.174Z,34.88
2023-05-23T07:28:40.080Z,30.35
2023-05-23T07:31:08.131Z,33.78
2023-05-23T07:33:35.442Z,32.97
2023-05-23T07:36:02.231Z,30.60
2023-05-23T07:38:28.942Z,31.73
2023-05-23T07:41:10.126Z,28.92
2023-05-23T07:43:39.119Z,28.38
2023-05-23T07:46:05.945Z,28.20
2023-05-23T07:48:34.618Z,27.90
2023-05-23T07:51:01.482Z,27.85
2023-05-23T07:53:28.309Z,27.08
2023-05-23T07:55:55.027Z,27.02
2023-05-23T07:58:23.180Z,26.70
2023-05-23T08:00:52.478Z,26.50
2023-05-23T08:03:19.889Z,25.45
2023-05-23T08:05:47.530Z,29.42
2023-05-23T08:08:14.314Z,31.60
2023-05-23T08:10:41.393Z,26.85
2023-05-23T08:13:10.343Z,23.80
2023-05-23T08:15:37.430Z,26.25
2023-05-23T08:18:05.261Z,23.63
2023-05-23T08:20:32.464Z,23.20
2023-05-23T08:23:03.198Z,23.52
2023-05-23T08:25:30.662Z,22.58
2023-05-23T08:28:01.290Z,19.48
2023-05-23T08:30:29.096Z,18.95
2023-05-23T08:32:56.960Z,18.52
2023-05-23T08:35:24.416Z,18.70
2023-05-23T08:37:52.369Z,18.90
2023-05-23T08:40:22.452Z,21.90
2023-05-23T08:42:50.933Z,21.15
2023-05-23T08:45:18.223Z,20.63
2023-05-23T08:47:46.403Z,19.92
2023-05-23T08:50:14.614Z,17.52
2023-05-23T08:53:00.078Z,19.40
2023-05-23T08:55:28.551Z,18.30
2023-05-23T08:57:57.684Z,18.10
2023-05-23T09:00:26.512Z,20.83
2023-05-23T09:02:54.667Z,17.05
2023-05-23T09:05:22.652Z,18.65
2023-05-23T09:07:51.445Z,17.73
2023-05-23T09:10:22.572Z,16.00
2023-05-23T09:12:49.880Z,16.38
2023-05-23T09:15:17.338Z,18.27
2023-05-23T09:17:45.119Z,17.08
2023-05-23T09:20:14.656Z,15.30
2023-05-23T09:22:45.988Z,15.63
2023-05-23T09:25:12.925Z,16.50
2023-05-23T09:27:40.074Z,15.32
2023-05-23T09:30:08.450Z,14.68
2023-05-23T09:32:35.173Z,20.55
2023-05-23T09:35:06.575Z,14.88
2023-05-23T09:37:46.124Z,15.60
2023-05-23T09:40:14.742Z,15.18
2023-05-23T09:42:46.565Z,15.77
2023-05-23T09:45:14.734Z,15.52
2023-05-23T09:47:51.629Z,14.98
2023-05-23T09:50:18.860Z,14.52
2023-05-23T09:52:47.051Z,14.77
2023-05-23T09:55:14.843Z,15.07
2023-05-23T09:57:43.468Z,15.52
2023-05-23T10:00:13.729Z,14.48
2023-05-23T10:03:11.081Z,13.00
2023-05-23T10:05:45.635Z,14.07
2023-05-23T10:08:19.019Z,14.23
2023-05-23T10:10:57.828Z,13.55
2023-05-23T10:13:28.953Z,13.32
2023-05-23T10:16:05.714Z,13.55
2023-05-23T10:18:39.753Z,13.88
2023-05-23T10:21:11.710Z,13.73
2023-05-23T10:23:39.275Z,13.45
2023-05-23T10:26:07.140Z,13.00
2023-05-23T10:28:34.181Z,12.38
2023-05-23T10:31:01.409Z,12.68
2023-05-23T10:33:33.926Z,12.57
2023-05-23T10:36:05.445Z,12.93
2023-05-23T10:38:51.707Z,13.35
2023-05-23T10:41:46.015Z,13.18
2023-05-23T10:44:17.183Z,12.55
2023-05-23T10:46:55.803Z,12.15
2023-05-23T10:49:37.289Z,11.88
2023-05-23T10:52:04.102Z,10.82
2023-05-23T10:54:52.890Z,9.90
2023-05-23T10:57:21.742Z,9.73
2023-05-23T10:59:52.083Z,11.27
2023-05-23T11:02:25.151Z,9.98
2023-05-23T11:05:23.848Z,10.45
2023-05-23T11:08:09.040Z,11.18
2023-05-23T11:10:59.958Z,10.40
2023-05-23T11:13:47.626Z,11.07
2023-05-23T11:16:42.469Z,10.25
2023-05-23T11:19:18.535Z,11.25
2023-05-23T11:21:55.882Z,10.57
2023-05-23T11:24:23.371Z,9.35
2023-05-23T11:27:01.159Z,11.65
2023-05-23T11:29:31.503Z,9.68
2023-05-23T11:31:58.551Z,10.23
2023-05-23T11:34:28.388Z,11.60
2023-05-23T11:36:55.855Z,10.25
2023-05-23T11:39:23.502Z,9.73
2023-05-23T11:42:03.764Z,10.82
2023-05-23T11:44:30.686Z,10.18
2023-05-23T11:47:02.289Z,11.23
2023-05-23T11:49:34.614Z,9.23
2023-05-23T11:52:02.800Z,10.30
2023-05-23T11:54:29.954Z,9.65
2023-05-23T11:56:57.924Z,9.05
2023-05-23T11:59:27.090Z,9.20
2023-05-23T12:01:54.197Z,8.85
2023-05-23T12:04:21.328Z,7.57
2023-05-23T12:06:49.680Z,8.73
2023-05-23T12:09:17.306Z,7.70
2023-05-23T12:11:46.087Z,8.32
2023-05-23T12:14:17.539Z,8.70
2023-05-23T12:16:47.747Z,8.07
2023-05-23T12:19:17.391Z,9.68
2023-05-23T12:21:46.925Z,8.10
2023-05-23T12:24:17.831Z,6.82
2023-05-23T12:26:49.378Z,7.43
2023-05-23T12:29:16.638Z,7.10
2023-05-23T12:31:43.631Z,7.07
2023-05-23T12:34:13.662Z,6.68
2023-05-23T12:36:49.177Z,6.25
2023-05-23T12:39:16.873Z,6.60
2023-05-23T12:41:45.022Z,5.82
2023-05-23T12:44:16.527Z,5.75
2023-05-23T12:46:43.671Z,5.55
2023-05-23T12:49:10.888Z,5.82
2023-05-23T12:51:37.691Z,5.38
2023-05-23T12:54:04.844Z,5.72
2023-05-23T12:56:31.822Z,4.95
2023-05-23T12:58:58.598Z,5.35
2023-05-23T13:01:25.815Z,5.15
2023-05-23T13:03:53.226Z,5.25
2023-05-23T13:06:20.158Z,4.90
2023-05-23T13:08:47.040Z,5.22
2023-05-23T13:11:13.838Z,5.40
2023-05-23T13:13:40.732Z,5.25
2023-05-23T13:16:07.589Z,4.68
2023-05-23T13:18:34.283Z,5.07
2023-05-23T13:21:01.243Z,5.13
2023-05-23T13:23:28.003Z,4.63
2023-05-23T13:25:54.845Z,4.88
2023-05-23T13:28:23.942Z,4.93
2023-05-23T13:30:51.505Z,4.68
2023-05-23T13:33:18.398Z,4.50
2023-05-23T13:35:45.519Z,4.38
2023-05-23T13:38:12.761Z,4.20
2023-05-23T13:40:39.680Z,4.55
2023-05-23T13:43:06.576Z,5.07
2023-05-23T13:45:34.024Z,4.40
2023-05-23T13:48:00.995Z,3.78
2023-05-23T13:50:30.919Z,4.65
2023-05-23T13:52:57.673Z,4.50
2023-05-23T13:55:24.520Z,5.30
2023-05-23T13:57:51.457Z,4.15
2023-05-23T14:00:18.416Z,3.60
2023-05-23T14:02:45.292Z,3.90
2023-05-23T14:05:12.452Z,3.88
2023-05-23T14:07:39.287Z,4.32
2023-05-23T14:10:07.205Z,4.00
2023-05-23T14:12:33.973Z,4.10
2023-05-23T14:15:00.753Z,4.20
2023-05-23T14:17:27.650Z,4.00
2023-05-23T14:19:54.472Z,4.40
2023-05-23T14:22:21.312Z,4.97
2023-05-23T14:24:48.048Z,4.68
2023-05-23T14:27:14.977Z,3.75
2023-05-23T14:29:46.342Z,3.95
2023-05-23T14:32:13.680Z,4.45
2023-05-23T14:34:40.869Z,3.50
2023-05-23T14:37:07.587Z,3.90
2023-05-23T14:39:34.266Z,3.95
2023-05-23T14:42:00.991Z,3.33
2023-05-23T14:44:28.187Z,3.35
2023-05-23T14:46:56.255Z,3.80
2023-05-23T14:49:23.068Z,3.75
2023-05-23T14:51:51.724Z,4.00
2023-05-23T14:54:19.274Z,3.70
2023-05-23T14:56:46.397Z,3.72
2023-05-23T14:59:13.279Z,3.80
2023-05-23T15:01:40.932Z,4.22
2023-05-23T15:04:09.329Z,3.85
2023-05-23T15:06:37.139Z,3.50
2023-05-23T15:09:04.251Z,3.50
2023-05-23T15:11:32.333Z,4.13
2023-05-23T15:13:59.830Z,4.10
2023-05-23T15:16:27.206Z,3.75
2023-05-23T15:18:54.220Z,3.63
2023-05-23T15:21:21.365Z,3.67
2023-05-23T15:23:48.410Z,3.05
2023-05-23T15:26:15.312Z,3.50
2023-05-23T15:28:42.023Z,3.05
2023-05-23T15:31:08.800Z,3.45
2023-05-23T15:33:35.744Z,3.15
2023-05-23T15:36:02.535Z,3.45
2023-05-23T15:38:29.259Z,2.83
2023-05-23T15:40:56.857Z,3.78
2023-05-23T15:43:25.128Z,3.15
2023-05-23T15:45:53.522Z,3.65
2023-05-23T15:48:20.362Z,3.15
2023-05-23T15:50:47.259Z,3.40
2023-05-23T15:53:14.221Z,3.53
2023-05-23T15:55:44.389Z,4.10
2023-05-23T15:58:11.602Z,3.60
2023-05-23T16:00:38.466Z,4.05
2023-05-23T16:03:05.485Z,4.63
2023-05-23T16:05:32.319Z,3.90
2023-05-23T16:07:59.105Z,3.45
2023-05-23T16:10:26.456Z,4.40
2023-05-23T16:12:53.294Z,4.18
2023-05-23T16:15:20.274Z,4.00
2023-05-23T16:17:47.361Z,4.38
2023-05-23T16:20:14.967Z,3.95
2023-05-23T16:22:41.984Z,4.55
2023-05-23T16:25:10.818Z,3.65
2023-05-23T16:27:37.695Z,3.67
2023-05-23T16:30:06.336Z,3.90
2023-05-23T16:32:35.007Z,4.40
2023-05-23T16:35:01.991Z,4.18
2023-05-23T16:37:28.709Z,4.28
2023-05-23T16:39:55.833Z,5.00
2023-05-23T16:42:22.755Z,3.80
2023-05-23T16:44:49.737Z,4.70
2023-05-23T16:47:17.421Z,4.93
2023-05-23T16:49:44.285Z,4.30
2023-05-23T16:52:11.376Z,4.97
2023-05-23T16:54:38.149Z,4.68
2023-05-23T16:57:05.697Z,4.15
2023-05-23T16:59:32.665Z,4.63
2023-05-23T17:01:59.597Z,4.45
2023-05-23T17:04:26.370Z,4.88
2023-05-23T17:06:53.191Z,4.65
2023-05-23T17:09:22.100Z,4.68
2023-05-23T17:11:49.712Z,4.47
2023-05-23T17:14:16.459Z,5.05
2023-05-23T17:16:43.428Z,4.47
2023-05-23T17:19:10.750Z,4.80
2023-05-23T17:21:37.717Z,5.45
2023-05-23T17:24:04.931Z,5.18
2023-05-23T17:26:31.906Z,5.93
2023-05-23T17:28:58.715Z,5.07
2023-05-23T17:31:26.579Z,4.90
2023-05-23T17:33:54.368Z,5.30
2023-05-23T17:36:21.280Z,5.22
2023-05-23T17:38:48.154Z,5.47
2023-05-23T17:41:15.836Z,6.18
2023-05-23T17:43:43.027Z,5.80
2023-05-23T17:46:10.009Z,6.63
2023-05-23T17:48:47.044Z,6.05
2023-05-23T17:51:15.662Z,5.95
2023-05-23T17:53:42.857Z,5.80
2023-05-23T17:56:09.903Z,6.53
2023-05-23T17:58:41.686Z,6.20
2023-05-23T18:01:11.788Z,6.53
2023-05-23T18:03:38.964Z,6.30
2023-05-23T18:06:05.944Z,7.03
2023-05-23T18:08:33.003Z,7.22
2023-05-23T18:11:00.109Z,6.90
2023-05-23T18:13:26.876Z,7.10
2023-05-23T18:15:53.631Z,7.10
2023-05-23T18:18:20.417Z,7.78
2023-05-23T18:20:47.426Z,7.60
2023-05-23T18:23:14.199Z,7.47
2023-05-23T18:25:41.237Z,6.93
2023-05-23T18:28:08.154Z,7.45
2023-05-23T18:30:35.028Z,6.53
2023-05-23T18:33:02.419Z,7.07
2023-05-23T18:35:29.314Z,7.35
2023-05-23T18:37:57.212Z,7.35
2023-05-23T18:40:26.183Z,7.10
2023-05-23T18:42:53.305Z,7.00
2023-05-23T18:45:20.100Z,7.45
2023-05-23T18:47:47.688Z,9.40
2023-05-23T18:50:14.656Z,8.48
2023-05-23T18:52:42.715Z,6.93
2023-05-23T18:55:11.318Z,7.68
2023-05-23T18:57:38.300Z,8.50
2023-05-23T19:00:07.348Z,8.73
2023-05-23T19:02:34.294Z,7.82
2023-05-23T19:05:02.151Z,7.40
2023-05-23T19:07:28.988Z,7.75
2023-05-23T19:09:55.973Z,9.30
2023-05-23T19:12:22.907Z,8.82
2023-05-23T19:14:49.744Z,7.75
2023-05-23T19:17:16.766Z,8.98
2023-05-23T19:19:43.998Z,7.72
2023-05-23T19:22:10.893Z,7.65
2023-05-23T19:24:38.067Z,9.52
2023-05-23T19:27:05.137Z,9.02
2023-05-23T19:29:31.898Z,7.60
2023-05-23T19:31:58.883Z,8.25
2023-05-23T19:34:25.712Z,7.95
2023-05-23T19:36:52.648Z,8.45
2023-05-23T19:39:19.745Z,8.20
2023-05-23T19:41:46.488Z,7.68
2023-05-23T19:44:13.630Z,7.78
2023-05-23T19:46:40.645Z,9.23
2023-05-23T19:49:08.432Z,9.43
2023-05-23T19:51:36.624Z,9.27
2023-05-23T19:54:03.647Z,10.20
2023-05-23T19:56:30.538Z,9.85
2023-05-23T19:58:57.298Z,10.68
2023-05-23T20:01:24.228Z,10.77
2023-05-23T20:03:51.526Z,10.20
2023-05-23T20:06:18.869Z,11.48
2023-05-23T20:08:47.086Z,12.20
2023-05-23T20:11:14.066Z,11.75
2023-05-23T20:13:41.220Z,11.00
2023-05-23T20:16:08.433Z,12.23
2023-05-23T20:18:35.230Z,11.90
2023-05-23T20:21:04.896Z,12.02
2023-05-23T20:23:32.431Z,10.68
2023-05-23T20:25:59.376Z,10.43
2023-05-23T20:28:26.176Z,10.13
2023-05-23T20:30:53.106Z,11.98
2023-05-23T20:33:20.487Z,9.05
2023-05-23T20:35:50.360Z,10.52
2023-05-23T20:38:18.653Z,10.57
2023-05-23T20:40:46.295Z,9.90
2023-05-23T20:43:15.045Z,11.90
2023-05-23T20:45:42.205Z,12.55
2023-05-23T20:48:09.660Z,11.93
2023-05-23T20:50:36.753Z,11.25
2023-05-23T20:53:03.693Z,10.00
2023-05-23T20:55:30.546Z,10.82
2023-05-23T20:57:57.395Z,10.73
2023-05-23T21:00:24.355Z,9.35
2023-05-23T21:02:51.562Z,10.15
2023-05-23T21:05:18.467Z,12.55
2023-05-23T21:07:45.425Z,9.40
2023-05-23T21:10:14.993Z,9.65
2023-05-23T21:12:49.224Z,8.65
2023-05-23T21:15:16.878Z,10.02
2023-05-23T21:17:43.823Z,8.32
2023-05-23T21:20:11.507Z,8.48
2023-05-23T21:22:38.313Z,8.80
2023-05-23T21:25:06.183Z,8.10
2023-05-23T21:27:32.972Z,7.55
2023-05-23T21:29:59.704Z,7.47
2023-05-23T21:32:26.664Z,8.65
2023-05-23T21:34:53.427Z,8.40
2023-05-23T21:37:20.376Z,6.97
2023-05-23T21:39:51.807Z,7.40
2023-05-23T21:42:20.096Z,7.03
2023-05-23T21:44:46.991Z,8.38
2023-05-23T21:47:13.949Z,7.25
2023-05-23T21:49:40.741Z,6.60
2023-05-23T21:52:07.601Z,8.57
2023-05-23T21:54:34.485Z,6.85
2023-05-23T21:57:01.399Z,9.75
2023-05-23T21:59:28.276Z,6.57
2023-05-23T22:01:55.030Z,8.05
2023-05-23T22:04:21.986Z,6.60
2023-05-23T22:06:48.972Z,6.53
2023-05-23T22:09:15.746Z,6.72
2023-05-23T22:11:43.028Z,7.25
2023-05-23T22:14:10.136Z,7.28
2023-05-23T22:16:39.823Z,6.88
2023-05-23T22:19:09.002Z,5.80
2023-05-23T22:21:36.772Z,8.32
2023-05-23T22:24:03.896Z,9.02
2023-05-23T22:26:30.698Z,7.00
2023-05-23T22:28:57.700Z,7.75
2023-05-23T22:31:24.629Z,6.20
2023-05-23T22:33:51.823Z,7.18
2023-05-23T22:36:18.679Z,6.45
2023-05-23T22:38:45.986Z,5.55
2023-05-23T22:41:12.821Z,5.97
2023-05-23T22:43:39.817Z,5.57
2023-05-23T22:46:07.171Z,5.25
2023-05-23T22:48:34.494Z,9.15
2023-05-23T22:51:02.446Z,5.18
2023-05-23T22:53:29.776Z,5.18
2023-05-23T22:55:57.489Z,9.30
2023-05-23T22:58:24.280Z,5.70
2023-05-23T23:00:51.363Z,7.20
2023-05-23T23:03:18.302Z,5.57
2023-05-23T23:05:45.224Z,5.65
2023-05-23T23:08:12.386Z,6.18
2023-05-23T23:10:40.380Z,6.15
2023-05-23T23:13:07.315Z,9.80
2023-05-23T23:15:34.199Z,5.28
2023-05-23T23:18:01.561Z,7.03
2023-05-23T23:20:28.656Z,6.20
2023-05-23T23:22:56.040Z,6.38
2023-05-23T23:25:23.173Z,5.72
2023-05-23T23:27:49.917Z,5.43
2023-05-23T23:30:16.724Z,5.68
2023-05-23T23:32:43.440Z,5.88
2023-05-23T23:35:10.174Z,7.47
2023-05-23T23:37:37.145Z,6.22
2023-05-23T23:40:05.265Z,5.75
2023-05-23T23:42:31.992Z,7.18
2023-05-23T23:44:58.901Z,5.47
2023-05-23T23:47:25.930Z,7.57
2023-05-23T23:49:53.002Z,7.45
2023-05-23T23:52:19.681Z,6.22
2023-05-23T23:54:46.446Z,9.43
2023-05-23T23:57:14.120Z,4.57
2023-05-23T23:59:44.152Z,5.30
